Time;durP1;ratioP1;P1;durP2;ratioP2;P2;SDS_P1;SDS_P2;PMS_P1;PMS_P2;Temp;Humidity;BMP_temperature;BMP_pressure;BME280_temperature;BME280_humidity;BME280_pressure;Samples;Min_cycle;Max_cycle;Signal;HPM_P1;HPM_P2
2021/11/12 00:02:19;;;;;;;41.40;26.40;;;;;;;2.45;83.26;97366.38;105426;1309;29332;-84
2021/11/12 00:13:17;;;;;;;41.60;26.60;;;;;;;2.29;83.02;97361.82;105368;1309;29343;-86
2021/11/12 00:15:52;;;;;;;39.90;26.10;;;;;;;2.28;82.89;97361.94;105334;1309;28028;-85
2021/11/12 00:18:26;;;;;;;44.50;27.90;;;;;;;2.24;83.12;97363.63;105484;1312;25686;-86
2021/11/12 00:20:59;;;;;;;44.40;28.40;;;;;;;2.14;83.58;97360.44;105467;1312;25162;-85
2021/11/12 00:23:31;;;;;;;46.90;28.60;;;;;;;2.06;84.26;97355.91;105403;1309;28930;-84
2021/11/12 00:26:02;;;;;;;49.20;31.50;;;;;;;2.03;84.47;97356.94;105372;1309;26820;-85
2021/11/12 00:28:37;;;;;;;63.90;37.30;;;;;;;2.02;85.19;97353.72;105413;1309;26467;-85
2021/11/12 00:31:15;;;;;;;66.70;38.80;;;;;;;2.08;86.04;97361.06;105421;1307;26390;-85
2021/11/12 00:34:07;;;;;;;61.40;37.20;;;;;;;2.11;86.11;97362.30;105436;1309;26107;-85
2021/11/12 00:36:45;;;;;;;55.90;32.90;;;;;;;2.12;86.22;97359.49;105391;1310;27197;-85
2021/11/12 00:39:21;;;;;;;45.00;29.40;;;;;;;2.07;85.67;97357.36;105404;1310;26529;-86
2021/11/12 00:42:00;;;;;;;47.40;29.00;;;;;;;2.02;85.43;97357.05;105412;1313;27539;-85
2021/11/12 00:44:35;;;;;;;57.80;34.60;;;;;;;1.90;85.42;97358.86;105392;1309;27056;-85
2021/11/12 00:47:08;;;;;;;62.20;34.40;;;;;;;1.86;85.75;97361.53;105393;1309;27883;-85
2021/11/12 00:49:42;;;;;;;64.60;37.40;;;;;;;1.88;86.58;97361.23;105358;1313;30035;-86
2021/11/12 00:52:16;;;;;;;68.70;39.10;;;;;;;1.92;87.17;97364.64;105348;1309;31067;-85
2021/11/12 00:54:47;;;;;;;58.40;35.50;;;;;;;1.97;87.30;97363.34;105325;1308;26156;-85
2021/11/12 00:57:18;;;;;;;54.40;31.90;;;;;;;1.97;87.28;97366.36;105380;1309;25592;-86
2021/11/12 00:59:49;;;;;;;47.60;28.80;;;;;;;2.01;87.12;97367.65;105352;1309;28362;-85
2021/11/12 01:02:20;;;;;;;44.30;27.70;;;;;;;2.03;86.76;97368.69;105427;1311;26751;-86
2021/11/12 01:04:51;;;;;;;48.80;28.40;;;;;;;2.07;86.39;97362.02;105408;1309;30995;-86
2021/11/12 01:07:21;;;;;;;42.60;27.00;;;;;;;2.08;86.10;97364.52;105370;1307;27477;-85
2021/11/12 01:09:51;;;;;;;;;;;;;;;2.07;85.73;97360.53;105369;1314;25479;-85
2021/11/12 01:12:23;;;;;;;40.80;24.10;;;;;;;2.01;85.65;97360.96;105351;1309;27680;-85
2021/11/12 01:14:54;;;;;;;41.50;25.70;;;;;;;1.97;85.67;97360.56;105447;1309;27084;-86
2021/11/12 01:17:25;;;;;;;35.00;23.00;;;;;;;1.95;85.26;97357.50;105456;1313;25559;-85
2021/11/12 01:19:56;;;;;;;39.10;24.40;;;;;;;1.79;85.08;97361.45;105447;1307;27240;-86
2021/11/12 01:22:25;;;;;;;;;;;;;;;1.65;85.08;97355.52;105438;1309;29165;-86
2021/11/12 01:24:56;;;;;;;40.70;24.20;;;;;;;1.57;85.19;97356.22;105412;1310;27862;-86
2021/11/12 01:27:27;;;;;;;38.80;24.40;;;;;;;1.58;85.34;97357.46;105633;1307;26244;-86
2021/11/12 01:29:58;;;;;;;38.60;25.60;;;;;;;1.61;85.15;97353.23;105659;1309;23030;-85
2021/11/12 01:32:28;;;;;;;44.90;28.30;;;;;;;1.64;85.38;97353.42;105503;1309;27039;-86
2021/11/12 01:35:01;;;;;;;43.30;27.60;;;;;;;1.67;85.35;97351.45;105432;1309;30078;-85
2021/11/12 01:37:34;;;;;;;45.80;28.30;;;;;;;1.65;85.21;97351.13;105368;1313;26591;-86
2021/11/12 01:40:08;;;;;;;40.50;26.10;;;;;;;1.64;85.50;97353.58;105344;1309;28975;-85
2021/11/12 01:43:09;;;;;;;44.20;27.30;;;;;;;1.65;85.29;97353.38;105382;1315;27887;-85
2021/11/12 01:45:50;;;;;;;40.40;24.80;;;;;;;1.68;85.24;97352.61;105099;1315;26518;-86
2021/11/12 01:51:27;;;;;;;46.90;27.60;;;;;;;1.23;84.55;97357.14;105141;1312;28198;-86
2021/11/12 01:54:18;;;;;;;44.80;26.90;;;;;;;1.00;84.88;97357.33;105377;1307;30148;-85
2021/11/12 01:56:59;;;;;;;48.10;28.30;;;;;;;0.88;85.16;97354.06;105325;1313;27020;-85
2021/11/12 01:59:30;;;;;;;43.50;26.70;;;;;;;0.84;85.66;97356.96;105459;1309;25827;-85
2021/11/12 02:02:07;;;;;;;46.90;28.30;;;;;;;0.90;86.03;97356.46;105390;1314;31220;-85
2021/11/12 02:04:38;;;;;;;39.20;25.30;;;;;;;1.01;85.80;97358.21;105322;1314;30215;-85
2021/11/12 02:07:11;;;;;;;42.80;26.50;;;;;;;1.02;85.68;97358.21;105381;1314;26452;-85
2021/11/12 02:09:42;;;;;;;41.00;26.00;;;;;;;1.05;85.54;97357.05;105379;1309;26131;-86
2021/11/12 02:12:21;;;;;;;41.50;23.70;;;;;;;1.05;85.41;97357.48;105358;1314;25523;-86
2021/11/12 02:14:54;;;;;;;41.70;26.70;;;;;;;1.04;85.76;97358.34;105348;1310;26592;-85
2021/11/12 02:17:27;;;;;;;41.00;25.40;;;;;;;1.00;85.85;97356.48;105315;1313;27555;-86
2021/11/12 02:20:06;;;;;;;40.90;26.70;;;;;;;0.99;86.15;97353.77;105365;1309;26253;-85
2021/11/12 02:22:38;;;;;;;43.90;27.10;;;;;;;1.00;86.38;97348.38;105315;1309;29432;-86
2021/11/12 02:25:13;;;;;;;41.40;26.80;;;;;;;1.06;86.08;97349.14;105327;1309;27491;-85
2021/11/12 02:27:50;;;;;;;41.10;27.10;;;;;;;1.12;86.28;97348.58;105301;1308;28415;-85
2021/11/12 02:30:24;;;;;;;41.50;26.70;;;;;;;1.16;86.13;97350.11;105342;1308;26370;-86
2021/11/12 02:33:04;;;;;;;36.30;23.90;;;;;;;1.20;86.13;97355.65;105289;1312;25984;-85
2021/11/12 02:35:40;;;;;;;38.10;24.50;;;;;;;1.24;86.30;97354.89;105283;1315;25959;-86
2021/11/12 02:38:11;;;;;;;35.60;21.50;;;;;;;1.23;86.24;97352.19;105397;1312;24495;-85
2021/11/12 02:40:42;;;;;;;38.80;23.70;;;;;;;1.25;86.09;97343.02;105379;1308;26662;-86
2021/11/12 02:43:13;;;;;;;46.20;27.30;;;;;;;1.20;85.95;97337.77;105335;1310;25957;-85
2021/11/12 02:45:44;;;;;;;38.40;24.60;;;;;;;1.11;86.02;97335.16;105396;1309;28530;-85
2021/11/12 02:48:16;;;;;;;43.60;26.20;;;;;;;1.04;86.67;97336.52;105386;1309;25690;-85
2021/11/12 02:50:48;;;;;;;43.00;25.60;;;;;;;1.09;87.20;97338.48;105438;1309;27026;-86
2021/11/12 02:53:19;;;;;;;44.70;27.80;;;;;;;1.22;87.83;97338.36;105371;1306;27674;-85
2021/11/12 02:55:50;;;;;;;44.50;26.80;;;;;;;1.35;88.18;97335.16;105392;1312;26682;-86
2021/11/12 02:58:21;;;;;;;47.80;27.50;;;;;;;1.45;88.43;97333.11;105406;1309;26676;-86
2021/11/12 03:00:50;;;;;;;;;;;;;;;1.51;88.38;97330.89;105369;1308;30649;-86
2021/11/12 03:03:21;;;;;;;38.80;23.90;;;;;;;1.56;88.39;97331.70;105406;1313;26662;-86
2021/11/12 03:05:52;;;;;;;46.10;27.40;;;;;;;1.59;88.46;97331.52;105374;1310;27730;-85
2021/11/12 03:08:23;;;;;;;41.70;26.00;;;;;;;1.61;88.27;97331.89;105377;1311;28964;-85
2021/11/12 03:10:55;;;;;;;47.30;26.50;;;;;;;1.65;88.67;97333.56;105338;1314;30315;-85
2021/11/12 03:13:26;;;;;;;44.40;25.30;;;;;;;1.69;88.65;97333.52;105345;1308;27462;-85
2021/11/12 03:16:00;;;;;;;42.40;25.60;;;;;;;1.72;88.67;97331.35;105435;1310;26814;-86
2021/11/12 03:18:33;;;;;;;37.80;23.00;;;;;;;1.76;88.93;97329.61;105433;1309;28438;-86
2021/11/12 03:21:04;;;;;;;43.50;25.80;;;;;;;1.81;89.27;97326.45;105408;1312;25523;-85
2021/11/12 03:23:38;;;;;;;47.10;27.30;;;;;;;1.85;89.11;97325.38;105396;1314;27525;-85
2021/11/12 03:26:20;;;;;;;40.90;26.10;;;;;;;1.85;88.87;97326.17;105341;1314;28382;-85
2021/11/12 04:03:05;;;;;;;40.50;24.00;;;;;;;2.18;89.85;97314.80;105322;1308;26685;-85
2021/11/12 04:17:23;;;;;;;40.60;24.00;;;;;;;2.28;90.09;97317.54;105409;1311;28517;-85
2021/11/12 05:11:00;;;;;;;40.20;24.70;;;;;;;2.60;90.83;97358.77;105377;1309;54270;-86
2021/11/12 05:44:41;;;;;;;40.10;25.20;;;;;;;3.19;90.47;97371.20;104864;1319;27663;-84
2021/11/12 05:50:04;;;;;;;41.60;24.60;;;;;;;3.07;90.32;97374.78;105395;1309;31033;-85
2021/11/12 05:55:24;;;;;;;43.70;26.30;;;;;;;3.09;90.38;97382.27;105407;1311;27263;-85
2021/11/12 05:57:56;;;;;;;34.40;22.00;;;;;;;3.10;90.34;97384.16;105390;1314;33476;-85
2021/11/12 06:00:27;;;;;;;37.00;23.80;;;;;;;3.10;90.36;97384.05;105443;1312;27886;-85
2021/11/12 06:02:57;;;;;;;39.80;24.20;;;;;;;3.11;90.35;97384.94;105393;1312;26985;-85
2021/11/12 06:05:28;;;;;;;41.00;23.50;;;;;;;3.13;90.35;97384.48;105463;1311;27243;-85
2021/11/12 06:07:59;;;;;;;38.60;22.80;;;;;;;3.15;90.33;97386.67;105460;1309;25960;-85
2021/11/12 06:10:30;;;;;;;39.60;24.80;;;;;;;3.16;90.31;97386.34;105409;1309;26474;-85
2021/11/12 06:12:59;;;;;;;;;;;;;;;3.19;90.52;97389.02;105391;1315;27371;-86
2021/11/12 06:15:30;;;;;;;41.40;23.60;;;;;;;3.20;90.51;97388.33;105441;1314;26726;-84
2021/11/12 06:18:02;;;;;;;45.40;25.10;;;;;;;3.19;90.47;97386.44;105421;1312;26913;-85
2021/11/12 06:20:33;;;;;;;39.30;24.00;;;;;;;3.19;90.47;97387.08;105483;1310;26148;-85
2021/11/12 06:23:04;;;;;;;43.30;25.60;;;;;;;3.21;90.46;97384.52;105435;1313;27575;-85
2021/11/12 06:25:35;;;;;;;39.30;24.10;;;;;;;3.22;90.41;97389.23;105443;1310;26294;-85
2021/11/12 06:28:06;;;;;;;43.90;26.60;;;;;;;3.26;90.49;97386.33;105401;1313;29815;-85
2021/11/12 06:30:37;;;;;;;42.30;25.50;;;;;;;3.27;90.44;97391.80;105382;1314;37356;-84
2021/11/12 06:33:08;;;;;;;44.20;26.30;;;;;;;3.30;90.37;97395.84;105416;1309;26381;-85
2021/11/12 06:35:39;;;;;;;41.50;26.90;;;;;;;3.36;90.45;97394.50;105433;1314;27931;-84
2021/11/12 06:38:12;;;;;;;39.60;24.40;;;;;;;3.43;90.33;97393.21;105381;1314;25296;-85
2021/11/12 06:40:43;;;;;;;41.80;24.70;;;;;;;3.48;90.29;97390.10;105376;1312;30797;-85
2021/11/12 06:43:23;;;;;;;40.10;23.70;;;;;;;3.49;90.22;97390.20;105386;1313;27647;-85
2021/11/12 06:51:33;;;;;;;41.40;25.70;;;;;;;3.61;90.21;97390.29;105498;1312;24784;-85
2021/11/12 06:54:05;;;;;;;41.30;24.30;;;;;;;3.62;90.07;97386.92;105399;1313;39987;-84
2021/11/12 06:56:35;;;;;;;41.40;25.50;;;;;;;3.64;90.04;97393.08;105422;1313;26012;-85
2021/11/12 06:59:06;;;;;;;43.90;25.00;;;;;;;3.67;90.11;97395.24;105403;1312;25986;-85
2021/11/12 07:01:37;;;;;;;39.90;22.50;;;;;;;3.72;90.13;97392.86;105417;1312;27291;-84
2021/11/12 07:04:08;;;;;;;39.00;23.00;;;;;;;3.75;89.87;97395.31;105363;1314;26084;-85
2021/11/12 07:06:39;;;;;;;40.20;24.70;;;;;;;3.76;89.98;97392.92;105401;1311;29012;-84
2021/11/12 07:09:10;;;;;;;44.20;25.60;;;;;;;3.78;89.87;97396.26;105390;1314;26914;-84
2021/11/12 07:11:40;;;;;;;45.40;25.60;;;;;;;3.83;89.91;97395.02;105412;1314;26011;-84
2021/11/12 07:14:11;;;;;;;37.00;23.30;;;;;;;3.89;89.83;97397.63;105289;1315;27414;-85
2021/11/12 07:16:43;;;;;;;39.10;24.10;;;;;;;3.90;89.82;97393.05;105417;1312;29955;-85
2021/11/12 07:19:14;;;;;;;43.60;26.40;;;;;;;3.92;89.69;97393.55;105379;1314;27689;-85
2021/11/12 07:21:47;;;;;;;40.40;24.40;;;;;;;3.94;89.69;97392.41;105422;1312;26072;-84
2021/11/12 07:24:19;;;;;;;41.80;23.70;;;;;;;3.97;89.67;97391.17;105405;1312;28083;-85
2021/11/12 07:26:50;;;;;;;36.40;22.60;;;;;;;3.98;89.57;97387.69;105426;1314;28385;-85
2021/11/12 07:29:23;;;;;;;38.30;22.50;;;;;;;3.97;89.44;97386.66;105375;1313;31032;-85
2021/11/12 07:31:56;;;;;;;40.60;24.70;;;;;;;3.95;89.34;97383.54;105452;1312;28678;-85
2021/11/12 07:34:28;;;;;;;42.00;24.90;;;;;;;3.95;89.37;97382.52;105411;1312;25685;-85
2021/11/12 07:37:02;;;;;;;36.60;22.60;;;;;;;4.01;89.58;97387.77;105442;1316;34185;-84
2021/11/12 07:39:50;;;;;;;43.20;23.50;;;;;;;4.03;89.55;97392.60;105250;1314;29047;-84
2021/11/12 07:42:37;;;;;;;39.20;23.10;;;;;;;3.98;89.40;97395.73;105447;1312;25638;-84
2021/11/12 07:45:13;;;;;;;41.30;23.70;;;;;;;3.98;89.23;97388.95;105320;1313;27399;-84
2021/11/12 07:47:44;;;;;;;40.70;23.40;;;;;;;3.96;89.35;97388.70;105415;1313;27307;-84
2021/11/12 07:50:15;;;;;;;40.70;24.90;;;;;;;3.97;89.40;97390.23;105268;1316;25747;-84
2021/11/12 07:52:46;;;;;;;37.30;22.60;;;;;;;4.00;89.40;97390.98;105333;1312;27686;-84
2021/11/12 07:55:17;;;;;;;36.60;22.10;;;;;;;4.00;89.35;97390.17;105395;1312;27920;-84
2021/11/12 07:57:46;;;;;;;;;;;;;;;4.00;89.32;97391.83;105373;1310;24672;-84
2021/11/12 08:00:17;;;;;;;40.50;22.30;;;;;;;4.01;89.37;97388.02;105411;1306;24938;-84
2021/11/12 08:02:48;;;;;;;38.30;22.40;;;;;;;4.05;89.27;97386.33;105405;1307;26427;-84
2021/11/12 08:05:21;;;;;;;;;;;;;;;4.09;89.15;97388.84;105411;1313;25631;-84
2021/11/12 08:07:56;;;;;;;34.60;21.40;;;;;;;4.16;89.02;97382.70;105468;1311;27342;-84
2021/11/12 08:10:30;;;;;;;32.60;20.00;;;;;;;4.22;88.93;97381.19;105244;1315;24841;-84
2021/11/12 08:13:06;;;;;;;37.30;22.50;;;;;;;4.28;88.90;97375.27;105396;1314;25908;-84
2021/11/12 08:15:46;;;;;;;35.20;21.10;;;;;;;4.33;88.93;97372.30;105389;1306;25754;-83
2021/11/12 08:21:04;;;;;;;36.30;23.50;;;;;;;4.08;88.38;97371.20;105357;1313;27264;-83
2021/11/12 08:23:46;;;;;;;36.00;21.70;;;;;;;3.98;88.55;97374.34;105385;1313;26747;-83
2021/11/12 08:26:26;;;;;;;34.20;20.60;;;;;;;3.91;88.59;97376.45;105394;1313;27164;-84
2021/11/12 08:34:45;;;;;;;39.70;23.20;;;;;;;3.89;89.06;97370.14;105208;1315;27710;-84
2021/11/12 08:37:21;;;;;;;;;;;;;;;3.92;89.17;97370.67;105274;1314;24749;-84
2021/11/12 08:40:02;;;;;;;35.90;21.30;;;;;;;3.94;89.02;97373.98;105432;1313;27358;-84
2021/11/12 08:42:37;;;;;;;36.00;21.80;;;;;;;3.97;89.05;97379.19;105254;1309;26224;-83
2021/11/12 08:45:15;;;;;;;37.70;22.90;;;;;;;4.07;89.24;97380.17;105349;1313;26438;-84
2021/11/12 08:47:50;;;;;;;37.70;22.80;;;;;;;4.18;89.15;97378.52;105196;1315;74506;-84
2021/11/12 08:50:22;;;;;;;39.30;22.00;;;;;;;4.28;89.08;97370.39;105320;1315;29644;-84
2021/11/12 08:53:04;;;;;;;35.00;22.50;;;;;;;4.32;89.00;97369.20;105438;1313;26925;-84
2021/11/12 08:55:37;;;;;;;35.90;21.60;;;;;;;4.32;88.65;97366.77;105261;1312;25990;-84
2021/11/12 08:58:10;;;;;;;36.60;22.70;;;;;;;4.26;88.67;97364.77;105250;1315;25494;-84
2021/11/12 09:00:45;;;;;;;36.40;21.70;;;;;;;4.24;88.64;97361.31;105269;1315;24840;-83
2021/11/12 09:03:16;;;;;;;36.30;22.00;;;;;;;4.24;88.62;97358.21;105275;1313;28900;-84
2021/11/12 09:05:46;;;;;;;39.30;23.50;;;;;;;4.23;88.69;97359.22;105273;1309;26908;-84
2021/11/12 09:08:17;;;;;;;39.50;23.30;;;;;;;4.26;88.75;97357.73;105296;1315;26220;-84
2021/11/12 09:10:49;;;;;;;31.50;20.50;;;;;;;4.30;88.64;97355.34;105352;1315;24242;-84
2021/11/12 09:13:22;;;;;;;38.90;23.50;;;;;;;4.33;88.68;97350.77;105272;1314;26559;-84
2021/11/12 09:15:56;;;;;;;39.60;22.80;;;;;;;4.32;88.56;97347.36;105327;1308;31726;-84
2021/11/12 09:18:27;;;;;;;37.10;22.90;;;;;;;4.38;88.61;97345.96;105289;1313;28822;-83
2021/11/12 09:20:59;;;;;;;33.70;21.30;;;;;;;4.43;88.51;97348.92;105243;1315;27966;-83
2021/11/12 09:23:29;;;;;;;38.20;23.50;;;;;;;4.37;88.30;97346.18;105346;1313;26668;-83
2021/11/12 09:26:01;;;;;;;39.90;25.60;;;;;;;4.33;88.49;97344.72;105350;1313;26616;-84
2021/11/12 09:28:33;;;;;;;38.10;23.40;;;;;;;4.28;88.39;97346.00;105250;1310;26897;-83
2021/11/12 09:31:05;;;;;;;42.80;24.70;;;;;;;4.20;88.35;97345.70;105326;1314;27014;-84
2021/11/12 09:33:37;;;;;;;41.50;25.60;;;;;;;4.17;88.37;97345.95;105304;1309;30808;-84
2021/11/12 09:36:09;;;;;;;42.00;26.00;;;;;;;4.20;88.47;97347.20;105234;1309;26427;-84
2021/11/12 09:38:41;;;;;;;37.40;22.50;;;;;;;4.28;88.62;97347.29;105279;1313;31572;-84
2021/11/12 09:41:13;;;;;;;39.20;23.40;;;;;;;4.38;88.79;97341.03;105306;1315;28727;-84
2021/11/12 09:43:44;;;;;;;38.30;23.60;;;;;;;4.38;88.40;97337.61;105344;1314;26731;-84
2021/11/12 09:46:15;;;;;;;37.90;23.20;;;;;;;4.48;88.48;97332.98;105323;1308;27637;-84
2021/11/12 09:48:46;;;;;;;41.10;26.00;;;;;;;4.62;88.74;97327.80;105333;1315;34971;-84
2021/11/12 09:51:17;;;;;;;41.90;25.30;;;;;;;4.74;88.71;97327.91;105312;1312;25552;-84
2021/11/12 09:53:46;;;;;;;;;;;;;;;4.82;88.55;97326.81;105264;1309;25421;-84
2021/11/12 09:56:17;;;;;;;37.30;24.00;;;;;;;4.89;88.52;97322.73;105231;1315;25033;-83
2021/11/12 09:58:48;;;;;;;;;;;;;;;4.95;88.15;97320.57;105333;1314;27873;-84
2021/11/12 10:01:26;;;;;;;38.80;24.10;;;;;;;5.00;88.04;97313.40;105355;1310;24431;-84
2021/11/12 10:04:04;;;;;;;40.00;23.90;;;;;;;5.05;87.95;97312.71;105330;1313;27964;-84
2021/11/12 10:06:38;;;;;;;37.80;22.50;;;;;;;5.10;87.88;97312.42;105270;1308;24871;-84
2021/11/12 10:09:18;;;;;;;41.60;24.10;;;;;;;5.13;87.69;97314.19;105314;1315;26008;-84
2021/11/12 10:11:52;;;;;;;39.30;25.60;;;;;;;5.12;87.32;97309.02;105250;1315;26362;-84
2021/11/12 10:14:38;;;;;;;40.60;25.10;;;;;;;5.14;87.17;97309.73;105349;1313;30800;-84
2021/11/12 10:17:10;;;;;;;37.20;24.80;;;;;;;5.19;87.22;97307.05;105239;1308;28180;-84
2021/11/12 10:19:47;;;;;;;39.30;23.20;;;;;;;5.13;86.95;97298.41;105343;1311;24873;-84
2021/11/12 10:22:22;;;;;;;40.30;25.70;;;;;;;5.15;86.96;97289.68;105372;1313;25953;-83
2021/11/12 10:24:54;;;;;;;43.40;26.20;;;;;;;5.17;86.86;97283.38;105398;1309;25685;-84
2021/11/12 10:27:28;;;;;;;44.30;25.40;;;;;;;5.14;86.80;97283.92;105429;1313;24477;-84
2021/11/12 10:30:10;;;;;;;44.20;28.10;;;;;;;5.07;86.56;97286.02;105271;1309;25298;-83
2021/11/12 10:32:46;;;;;;;45.10;27.80;;;;;;;5.00;86.74;97286.38;105276;1310;25279;-84
2021/11/12 10:35:25;;;;;;;50.60;29.80;;;;;;;4.98;86.91;97284.91;105346;1313;26456;-84
2021/11/12 10:38:06;;;;;;;46.70;27.30;;;;;;;5.10;87.30;97280.15;105255;1309;29712;-83
2021/11/12 10:40:38;;;;;;;46.10;27.80;;;;;;;5.20;86.94;97278.17;105315;1308;29242;-84
2021/11/12 10:43:09;;;;;;;42.10;25.90;;;;;;;5.28;87.12;97277.58;105302;1313;41203;-84
2021/11/12 10:45:40;;;;;;;48.20;30.20;;;;;;;5.20;86.61;97273.08;105431;1310;24895;-84
2021/11/12 10:48:28;;;;;;;52.70;30.90;;;;;;;5.04;86.35;97270.61;105351;1313;25297;-84
2021/11/12 10:51:23;;;;;;;50.90;30.20;;;;;;;4.95;86.50;97263.83;105336;1307;26779;-84
2021/11/12 10:53:54;;;;;;;53.40;31.90;;;;;;;4.93;86.62;97255.36;105330;1310;27531;-84
2021/11/12 10:56:45;;;;;;;51.10;30.90;;;;;;;4.99;86.86;97253.40;105371;1313;35740;-84
2021/11/12 10:59:14;;;;;;;;;;;;;;;5.16;87.17;97251.10;105217;1309;29786;-84
2021/11/12 11:01:50;;;;;;;45.50;28.20;;;;;;;5.27;86.87;97250.27;105337;1309;27928;-84
2021/11/12 11:04:23;;;;;;;45.10;27.80;;;;;;;5.39;86.95;97246.66;105348;1315;28530;-84
2021/11/12 11:06:54;;;;;;;45.60;29.30;;;;;;;5.47;86.46;97243.88;105258;1312;25767;-84
2021/11/12 11:09:38;;;;;;;49.70;29.50;;;;;;;5.39;86.14;97240.20;105420;1313;25942;-84
2021/11/12 11:12:32;;;;;;;46.70;27.70;;;;;;;5.43;86.23;97237.58;105402;1313;25979;-84
2021/11/12 11:15:18;;;;;;;47.10;29.50;;;;;;;5.41;86.08;97235.02;105283;1309;25851;-84
2021/11/12 11:18:06;;;;;;;47.50;29.60;;;;;;;5.46;86.26;97236.02;105284;1308;27038;-84
2021/11/12 11:20:37;;;;;;;45.80;28.50;;;;;;;5.55;86.11;97224.23;105346;1307;28489;-84
2021/11/12 11:23:08;;;;;;;50.80;29.70;;;;;;;5.68;86.24;97221.77;105337;1309;29983;-84
2021/11/12 11:25:39;;;;;;;44.10;27.20;;;;;;;5.80;85.94;97221.28;105339;1306;29354;-84
2021/11/12 11:28:11;;;;;;;47.40;29.30;;;;;;;5.73;85.18;97220.92;105245;1315;26271;-84
2021/11/12 11:30:45;;;;;;;45.90;28.60;;;;;;;5.47;84.83;97214.60;105327;1309;27321;-83
2021/11/12 11:33:17;;;;;;;50.80;29.70;;;;;;;5.26;85.17;97219.67;105317;1313;33027;-84
2021/11/12 11:35:54;;;;;;;47.60;30.70;;;;;;;5.21;85.56;97217.86;105378;1307;26802;-84
2021/11/12 11:38:30;;;;;;;49.60;29.40;;;;;;;5.20;85.89;97220.14;105389;1311;31650;-82
2021/11/12 11:41:05;;;;;;;50.40;30.60;;;;;;;5.14;85.95;97218.02;105386;1309;29099;-83
2021/11/12 11:43:36;;;;;;;52.50;32.30;;;;;;;5.08;85.91;97217.15;105382;1315;24612;-84
2021/11/12 11:46:10;;;;;;;56.30;32.90;;;;;;;5.07;85.96;97214.82;105380;1310;26657;-84
2021/11/12 11:48:43;;;;;;;53.40;31.40;;;;;;;5.15;86.34;97207.56;105423;1315;26398;-84
2021/11/12 11:51:24;;;;;;;57.60;33.00;;;;;;;5.24;86.50;97202.59;105429;1313;27956;-84
2021/11/12 11:54:01;;;;;;;54.40;32.20;;;;;;;5.40;86.38;97200.41;105432;1313;24518;-83
2021/11/12 11:56:34;;;;;;;46.80;29.20;;;;;;;5.52;86.48;97201.81;105388;1310;25860;-83
2021/11/12 11:59:10;;;;;;;48.50;30.20;;;;;;;5.56;86.00;97202.10;105398;1311;25095;-84
2021/11/12 12:01:46;;;;;;;50.80;30.40;;;;;;;5.57;85.98;97198.88;105403;1311;27821;-83
2021/11/12 12:04:44;;;;;;;52.60;32.40;;;;;;;5.66;86.07;97204.38;105387;1306;25392;-82
2021/11/12 12:07:19;;;;;;;54.10;33.00;;;;;;;5.74;85.93;97195.10;105369;1307;26369;-83
2021/11/12 12:09:56;;;;;;;53.30;32.60;;;;;;;5.77;85.81;97190.11;105408;1310;24034;-83
2021/11/12 12:12:41;;;;;;;56.20;33.10;;;;;;;5.80;85.83;97180.45;105337;1316;25100;-83
2021/11/12 12:15:35;;;;;;;48.80;31.00;;;;;;;5.84;85.65;97176.84;105342;1310;25608;-83
2021/11/12 12:18:27;;;;;;;50.80;32.30;;;;;;;5.88;85.73;97174.75;105404;1313;25607;-84
2021/11/12 13:20:45;;;;;;;65.30;38.00;;;;;;;5.69;84.55;97155.50;105233;1313;25092;-84
2021/11/12 13:23:33;;;;;;;66.90;38.20;;;;;;;5.52;84.58;97154.16;105248;1309;29245;-84
2021/11/12 13:26:06;;;;;;;56.40;33.90;;;;;;;5.52;84.75;97151.02;105240;1311;27784;-84
2021/11/12 13:28:40;;;;;;;65.40;36.50;;;;;;;5.54;84.75;97148.37;105253;1309;27189;-84
2021/11/12 13:31:18;;;;;;;63.30;35.80;;;;;;;5.57;84.89;97148.27;105262;1313;26609;-84
2021/11/12 13:33:51;;;;;;;57.70;33.40;;;;;;;5.59;85.13;97147.20;105421;1313;28769;-83
2021/11/12 13:36:24;;;;;;;62.10;36.80;;;;;;;5.61;84.98;97148.49;105419;1311;26851;-84
2021/11/12 13:38:59;;;;;;;63.10;36.60;;;;;;;5.58;84.75;97150.29;105471;1307;26342;-84
2021/11/12 13:41:35;;;;;;;67.50;37.40;;;;;;;5.50;84.76;97150.39;105402;1314;26350;-83
2021/11/12 13:44:08;;;;;;;61.40;35.30;;;;;;;5.52;85.11;97145.86;105384;1308;27418;-83
2021/11/12 13:46:49;;;;;;;63.20;37.80;;;;;;;5.55;85.13;97145.91;105406;1313;25234;-83
2021/11/12 13:49:35;;;;;;;66.80;38.00;;;;;;;5.54;85.31;97145.79;105375;1314;25431;-84
2021/11/12 13:52:11;;;;;;;64.00;38.00;;;;;;;5.54;85.13;97155.26;105406;1309;31725;-84
2021/11/12 13:54:45;;;;;;;63.00;37.80;;;;;;;5.54;84.91;97155.98;105376;1311;26456;-84
2021/11/12 13:57:20;;;;;;;71.00;39.50;;;;;;;5.50;84.98;97158.59;105403;1310;25271;-85
2021/11/12 13:59:59;;;;;;;69.10;40.50;;;;;;;5.41;85.11;97151.66;105417;1311;32563;-84
2021/11/12 14:02:31;;;;;;;84.50;46.70;;;;;;;5.31;84.92;97149.77;105303;1307;38526;-83
2021/11/12 14:05:12;;;;;;;73.80;40.10;;;;;;;5.28;85.21;97149.47;105358;1310;27497;-84
2021/11/12 14:07:45;;;;;;;68.80;39.90;;;;;;;5.22;85.29;97148.45;105356;1311;28714;-84
2021/11/12 14:10:17;;;;;;;74.50;40.40;;;;;;;5.15;85.24;97150.48;105296;1309;25050;-84
2021/11/12 14:12:56;;;;;;;71.70;42.10;;;;;;;5.06;85.45;97147.88;105362;1309;28299;-84
2021/11/12 14:15:29;;;;;;;73.70;39.90;;;;;;;5.02;85.70;97145.64;105349;1313;24810;-83
2021/11/12 14:18:30;;;;;;;64.80;39.00;;;;;;;5.03;85.64;97143.92;105369;1311;28644;-83
2021/11/12 14:21:14;;;;;;;72.30;41.80;;;;;;;5.06;85.94;97146.34;105364;1311;26754;-84
2021/11/12 14:24:24;;;;;;;74.50;42.70;;;;;;;5.11;85.97;97143.20;105386;1310;26273;-84
2021/11/12 14:27:01;;;;;;;69.90;39.50;;;;;;;5.14;86.10;97140.47;105421;1309;26258;-84
2021/11/12 14:32:53;;;;;;;72.30;40.60;;;;;;;5.15;85.86;97127.10;101833;1352;545991;-83
2021/11/12 14:38:23;;;;;;;67.30;38.40;;;;;;;5.16;86.25;97132.33;104123;1329;25578;-83
2021/11/12 14:44:20;;;;;;;66.70;40.60;;;;;;;5.13;86.11;97128.36;104635;1316;32002;-85
2021/11/12 14:49:37;;;;;;;70.30;41.70;;;;;;;5.11;86.22;97127.14;104855;1316;27212;-83
2021/11/12 14:52:14;;;;;;;67.10;39.80;;;;;;;5.14;86.38;97127.65;104770;1315;24787;-83
2021/11/12 14:54:50;;;;;;;66.50;39.90;;;;;;;5.15;86.19;97125.16;104822;1315;29371;-82
2021/11/12 14:57:27;;;;;;;73.50;41.10;;;;;;;5.17;86.22;97123.94;104790;1315;26537;-83
2021/11/12 15:00:05;;;;;;;70.10;39.10;;;;;;;5.19;86.13;97116.71;104735;1317;24666;-84
2021/11/12 15:02:39;;;;;;;69.10;40.50;;;;;;;5.19;86.07;97115.50;104749;1320;25437;-85
2021/11/12 15:05:14;;;;;;;66.40;38.20;;;;;;;5.17;86.01;97116.46;104743;1318;27993;-84
2021/11/12 15:07:51;;;;;;;68.30;38.70;;;;;;;5.16;86.25;97120.70;104799;1316;25992;-84
2021/11/12 15:10:26;;;;;;;71.70;39.70;;;;;;;5.16;86.18;97120.33;104855;1321;29234;-85
2021/11/12 15:12:58;;;;;;;68.80;39.70;;;;;;;5.11;86.15;97115.19;104803;1313;24901;-84
2021/11/12 15:15:30;;;;;;;69.10;39.50;;;;;;;4.98;86.30;97110.19;104804;1315;25063;-84
2021/11/12 15:18:04;;;;;;;71.90;40.80;;;;;;;4.82;86.43;97109.19;104815;1321;25687;-85
2021/11/12 15:20:37;;;;;;;73.00;41.20;;;;;;;4.71;86.56;97108.27;104865;1320;25498;-85
2021/11/12 15:26:18;;;;;;;66.10;39.90;;;;;;;4.61;86.94;97108.92;104632;1319;24748;-85
2021/11/12 15:31:38;;;;;;;71.30;39.90;;;;;;;4.51;87.23;97113.10;104863;1317;26466;-84
2021/11/12 15:34:11;;;;;;;75.30;42.60;;;;;;;4.44;87.45;97109.53;104901;1313;25826;-85
2021/11/12 15:36:47;;;;;;;73.90;43.20;;;;;;;4.40;87.63;97109.71;104734;1317;26682;-85
2021/11/12 15:39:21;;;;;;;77.90;43.10;;;;;;;4.44;87.82;97113.09;104926;1318;32351;-85
2021/11/12 15:42:12;;;;;;;70.10;40.10;;;;;;;4.39;87.98;97112.00;105002;1313;25505;-85
2021/11/12 15:44:44;;;;;;;73.60;40.40;;;;;;;4.34;88.07;97113.27;104914;1312;25597;-85
2021/11/12 15:47:22;;;;;;;71.50;40.40;;;;;;;4.32;88.11;97114.64;104870;1313;25839;-85
2021/11/12 15:50:01;;;;;;;66.50;37.10;;;;;;;4.34;88.35;97121.56;104952;1318;27871;-85
2021/11/12 15:52:39;;;;;;;73.90;40.70;;;;;;;4.33;88.43;97127.06;104867;1313;26383;-85